| time (UTC) | temp C | wind direction | speed KPH | gust KPH | rain 1hr cm | rain 24hr cm | rain mn cm | humidity % | barometer mb |
| 20260504222933 | 22 | 166 | 3.2 | 3.2 | 0.00 | 0.08 | 0.08 | 89 | 1010.3 |
| 20260504222431 | 22 | 230 | 1.6 | 4.8 | 0.00 | 0.08 | 0.08 | 89 | 1010.3 |
| 20260504221928 | 22 | 153 | 4.8 | 9.7 | 0.00 | 0.08 | 0.08 | 89 | 1009.7 |
| 20260504221425 | 22 | 151 | 1.6 | 3.2 | 0.00 | 0.08 | 0.08 | 89 | 1010.2 |
| 20260504220922 | 22 | 77 | 0.0 | 1.6 | 0.00 | 0.08 | 0.08 | 89 | 1010.4 |
| 20260504220419 | 21 | 79 | 0.0 | 1.6 | 0.00 | 0.08 | 0.08 | 89 | 1010.4 |
| 20260504215916 | 21 | 15 | 0.0 | 1.6 | 0.18 | 0.08 | 0.08 | 89 | 1010.3 |
| 20260504215413 | 21 | 343 | 1.6 | 3.2 | 0.18 | 0.08 | 0.08 | 89 | 1010.8 |
| 20260504214909 | 21 | 20 | 1.6 | 4.8 | 0.00 | 0.05 | 0.05 | 89 | 1010.4 |
| 20260504214406 | 21 | 77 | 0.0 | 3.2 | 0.00 | 0.05 | 0.05 | 89 | 1010.7 |
| 20260504213902 | 21 | 353 | 0.0 | 3.2 | 0.00 | 0.05 | 0.05 | 89 | 1011.0 |
| 20260504213358 | 21 | 22 | 0.0 | 1.6 | 0.13 | 0.05 | 0.05 | 89 | 1011.3 |
| 20260504212856 | 21 | 289 | 3.2 | 3.2 | 0.13 | 0.05 | 0.05 | 88 | 1011.1 |
| 20260504212351 | 21 | 15 | 0.0 | 3.2 | 0.00 | 0.03 | 0.03 | 88 | 1011.2 |
| 20260504211850 | 21 | 326 | 1.6 | 4.8 | 0.00 | 0.03 | 0.03 | 88 | 1011.1 |
| 20260504211345 | 21 | 337 | 0.0 | 3.2 | 0.00 | 0.03 | 0.03 | 88 | 1011.4 |
| 20260504210843 | 21 | 18 | 0.0 | 3.2 | 0.00 | 0.03 | 0.03 | 88 | 1011.4 |
| 20260504210340 | 21 | 322 | 1.6 | 1.6 | 0.00 | 0.03 | 0.03 | 88 | 1011.3 |
| 20260504205837 | 21 | 324 | 1.6 | 4.8 | 0.00 | 0.03 | 0.03 | 88 | 1011.4 |
| 20260504205335 | 21 | 343 | 3.2 | 9.7 | 0.00 | 0.03 | 0.03 | 88 | 1011.6 |
| 20260504204833 | 21 | 280 | 1.6 | 4.8 | 0.00 | 0.03 | 0.03 | 87 | 1011.7 |
| 20260504204331 | 21 | 32 | 4.8 | 9.7 | 0.00 | 0.03 | 0.03 | 87 | 1011.8 |
| 20260504203830 | 21 | 322 | 1.6 | 3.2 | 0.00 | 0.03 | 0.03 | 87 | 1011.7 |
| 20260504203326 | 21 | 305 | 1.6 | 6.4 | 0.00 | 0.03 | 0.03 | 87 | 1012.1 |
| 20260504202822 | 21 | 291 | 1.6 | 6.4 | 0.00 | 0.03 | 0.03 | 87 | 1011.8 |
| 20260504202320 | 21 | 315 | 1.6 | 4.8 | 0.00 | 0.03 | 0.03 | 87 | 1011.9 |
| 20260504201816 | 22 | 347 | 1.6 | 4.8 | 0.00 | 0.03 | 0.03 | 87 | 1011.8 |
| 20260504201314 | 21 | 317 | 1.6 | 6.4 | 0.18 | 0.03 | 0.03 | 87 | 1011.6 |
| 20260504200811 | 22 | 336 | 1.6 | 9.7 | 0.18 | 0.03 | 0.03 | 87 | 1011.9 |
| 20260504200307 | 22 | 78 | 3.2 | 9.7 | 0.00 | 0.00 | 0.00 | 87 | 1011.7 |
| 20260504195803 | 22 | 308 | 3.2 | 4.8 | 0.00 | 0.00 | 0.00 | 87 | 1011.7 |
| 20260504195259 | 21 | 288 | 4.8 | 11.3 | 0.00 | 0.00 | 0.00 | 86 | 1011.7 |
| 20260504194756 | 21 | 304 | 3.2 | 14.5 | 0.00 | 0.00 | 0.00 | 86 | 1012.0 |
| 20260504194253 | 22 | 306 | 3.2 | 12.9 | 0.00 | 0.00 | 0.00 | 86 | 1011.9 |
| 20260504193749 | 22 | 8 | 11.3 | 16.1 | 0.00 | 0.00 | 0.00 | 85 | 1011.7 |
| 20260504193246 | 22 | 39 | 16.1 | 25.7 | 0.00 | 0.00 | 0.00 | 83 | 1011.7 |
| 20260504192745 | 22 | 295 | 9.7 | 24.1 | 0.00 | 0.00 | 0.00 | 82 | 1011.8 |
| 20260504192242 | 22 | 230 | 3.2 | 16.1 | 0.00 | 0.00 | 0.00 | 81 | 1011.5 |
| 20260504191741 | 23 | 19 | 3.2 | 17.7 | 0.00 | 0.00 | 0.00 | 80 | 1011.6 |
| 20260504191237 | 23 | 344 | 3.2 | 14.5 | 0.00 | 0.00 | 0.00 | 81 | 1011.4 |
| 20260504190733 | 23 | 229 | 1.6 | 11.3 | 0.00 | 0.00 | 0.00 | 80 | 1011.5 |
| 20260504190230 | 23 | 359 | 4.8 | 12.9 | 0.00 | 0.00 | 0.00 | 81 | 1011.5 |
| 20260504185726 | 23 | 214 | 4.8 | 9.7 | 0.00 | 0.00 | 0.00 | 82 | 1011.3 |
| 20260504185223 | 23 | 16 | 8.0 | 17.7 | 0.00 | 0.00 | 0.00 | 84 | 1011.3 |
| 20260504184719 | 23 | 332 | 6.4 | 12.9 | 0.00 | 0.00 | 0.00 | 85 | 1011.1 |
| 20260504184215 | 23 | 15 | 4.8 | 16.1 | 0.00 | 0.00 | 0.00 | 86 | 1011.2 |
| 20260504183711 | 23 | 307 | 1.6 | 14.5 | 0.00 | 0.00 | 0.00 | 87 | 1011.0 |
| 20260504183208 | 23 | 329 | 1.6 | 1.6 | 0.00 | 0.00 | 0.00 | 87 | 1010.6 |
| 20260504182706 | 23 | 317 | 0.0 | 1.6 | 0.00 | 6.30 | 6.30 | 87 | 1010.4 |
| 20260504182203 | 23 | 321 | 0.0 | 3.2 | 0.00 | 6.30 | 6.30 | 88 | 1010.5 |
| 20260504181701 | 23 | 311 | 1.6 | 1.6 | 0.00 | 6.30 | 6.30 | 88 | 1010.6 |
| 20260504181158 | 23 | 224 | 0.0 | 1.6 | 0.00 | 6.30 | 6.30 | 88 | 1010.4 |
| 20260504180657 | 23 | 181 | 0.0 | 0.0 | 0.00 | 6.30 | 6.30 | 88 | 1010.5 |
| 20260504180155 | 23 | 184 | 0.0 | 1.6 | 0.00 | 6.30 | 6.30 | 88 | 1010.3 |
| 20260504175652 | 23 | 159 | 0.0 | 1.6 | 0.00 | 6.30 | 6.30 | 88 | 1010.4 |
| 20260504175149 | 23 | 155 | 0.0 | 0.0 | 0.00 | 6.30 | 6.30 | 88 | 1010.6 |
| 20260504174647 | 23 | 155 | 0.0 | 0.0 | 0.00 | 6.30 | 6.30 | 87 | 1010.7 |
| 20260504174143 | 24 | 155 | 0.0 | 0.0 | 0.00 | 6.30 | 6.30 | 87 | 1010.5 |
| 20260504173640 | 24 | 155 | 0.0 | 1.6 | 0.00 | 6.30 | 6.30 | 87 | 1010.4 |
| 20260504173138 | 24 | 155 | 0.0 | 1.6 | 0.00 | 6.30 | 6.30 | 87 | 1010.6 |
| 20260504172635 | 24 | 164 | 0.0 | 0.0 | 0.00 | 6.30 | 6.30 | 87 | 1010.5 |
| 20260504172131 | 24 | 164 | 0.0 | 0.0 | 0.00 | 6.30 | 6.30 | 87 | 1010.5 |
| 20260504171627 | 24 | 164 | 0.0 | 0.0 | 0.00 | 6.30 | 6.30 | 86 | 1010.5 |
| 20260504171125 | 24 | 164 | 0.0 | 0.0 | 0.00 | 6.30 | 6.30 | 86 | 1010.2 |
| 20260504170621 | 24 | 164 | 0.0 | 0.0 | 0.00 | 6.30 | 6.30 | 86 | 1010.2 |
| 20260504170119 | 24 | 164 | 0.0 | 1.6 | 0.00 | 6.30 | 6.30 | 86 | 1010.2 |
| 20260504151004 | 23 | 174 | 3.2 | 4.8 | 0.00 | 6.30 | 6.30 | 83 | 1009.8 |
| 20260504150501 | 23 | 172 | 1.6 | 4.8 | 0.00 | 6.30 | 6.30 | 84 | 1009.6 |
| 20260504140927 | 23 | 187 | 1.6 | 11.3 | 0.00 | 6.30 | 6.30 | 81 | 1008.0 |
| 20260504140424 | 23 | 187 | 3.2 | 11.3 | 0.00 | 6.30 | 6.30 | 81 | 1008.0 |
| 20260504130349 | 23 | 177 | 4.8 | 12.9 | 0.00 | 6.30 | 6.30 | 84 | 1008.1 |
| 20260504120311 | 23 | 167 | 3.2 | 6.4 | 0.13 | 6.30 | 6.30 | 90 | 1007.1 |
| 20260504110236 | 23 | 304 | 11.3 | 24.1 | 5.16 | 0.89 | 0.89 | 84 | 1006.3 |
| 20260504100159 | 33 | 184 | 1.6 | 3.2 | 0.00 | 0.00 | 0.00 | 63 | 1006.3 |
| 20260504090122 | 35 | 193 | 0.0 | 3.2 | 0.00 | 0.00 | 0.00 | 55 | 1007.2 |
| 20260504081558 | 36 | 195 | 0.0 | 3.2 | 0.00 | 0.00 | 0.00 | 56 | 1008.3 |
| 20260504081054 | 37 | 182 | 3.2 | 3.2 | 0.00 | 0.00 | 0.00 | 51 | 1008.3 |
| 20260504080551 | 36 | 290 | 3.2 | 4.8 | 0.00 | 0.00 | 0.00 | 51 | 1008.4 |
| 20260504050403 | 34 | 164 | 3.2 | 4.8 | 0.00 | 0.00 | 0.00 | 55 | 1010.6 |
| 20260504045900 | 35 | 164 | 3.2 | 3.2 | 0.00 | 0.00 | 0.00 | 52 | 1010.4 |
| 20260504045355 | 34 | 160 | 1.6 | 3.2 | 0.00 | 0.00 | 0.00 | 56 | 1010.7 |
| 20260504044853 | 33 | 127 | 3.2 | 4.8 | 0.00 | 0.00 | 0.00 | 56 | 1010.5 |
| 20260504044350 | 33 | 263 | 0.0 | 4.8 | 0.00 | 0.00 | 0.00 | 57 | 1010.3 |
| 20260504043847 | 33 | 159 | 0.0 | 4.8 | 0.00 | 0.00 | 0.00 | 57 | 1010.5 |
| 20260504043344 | 34 | 222 | 0.0 | 1.6 | 0.00 | 0.00 | 0.00 | 57 | 1010.4 |
| 20260504042841 | 33 | 156 | 0.0 | 3.2 | 0.00 | 0.00 | 0.00 | 58 | 1010.4 |
| 20260504042338 | 33 | 184 | 6.4 | 6.4 | 0.00 | 0.00 | 0.00 | 57 | 1010.3 |
| 20260504041834 | 33 | 299 | 3.2 | 4.8 | 0.00 | 0.00 | 0.00 | 58 | 1010.4 |
| 20260504041330 | 32 | 165 | 3.2 | 9.7 | 0.00 | 0.00 | 0.00 | 60 | 1010.5 |
| 20260504040826 | 33 | 182 | 4.8 | 6.4 | 0.00 | 0.00 | 0.00 | 58 | 1010.5 |
| 20260504040324 | 32 | 178 | 1.6 | 3.2 | 0.00 | 0.00 | 0.00 | 59 | 1010.5 |
| 20260504035820 | 31 | 227 | 3.2 | 3.2 | 0.00 | 0.00 | 0.00 | 61 | 1010.5 |
| 20260504035318 | 32 | 179 | 6.4 | 9.7 | 0.00 | 0.00 | 0.00 | 62 | 1010.2 |
| 20260504034815 | 32 | 178 | 1.6 | 4.8 | 0.00 | 0.00 | 0.00 | 63 | 1010.5 |
| 20260504034312 | 32 | 204 | 1.6 | 3.2 | 0.00 | 0.00 | 0.00 | 61 | 1010.3 |
| 20260504033809 | 32 | 174 | 3.2 | 3.2 | 0.00 | 0.00 | 0.00 | 61 | 1010.4 |
| 20260504033307 | 31 | 147 | 3.2 | 6.4 | 0.00 | 0.00 | 0.00 | 63 | 1010.2 |
| 20260504032803 | 31 | 148 | 3.2 | 4.8 | 0.00 | 0.00 | 0.00 | 64 | 1010.4 |
| 20260504032300 | 32 | 171 | 1.6 | 3.2 | 0.00 | 0.00 | 0.00 | 63 | 1010.0 |
| 20260504031757 | 31 | 158 | 3.2 | 4.8 | 0.00 | 0.00 | 0.00 | 65 | 1010.0 |
| 20260504031255 | 31 | 160 | 1.6 | 6.4 | 0.00 | 0.00 | 0.00 | 64 | 1010.0 |
| 20260504030750 | 31 | 158 | 3.2 | 3.2 | 0.00 | 0.00 | 0.00 | 63 | 1010.1 |
| 20260504030248 | 31 | 168 | 0.0 | 4.8 | 0.00 | 0.00 | 0.00 | 65 | 1009.9 |
| 20260504025744 | 31 | 158 | 3.2 | 3.2 | 0.00 | 0.00 | 0.00 | 65 | 1010.0 |
| 20260504025241 | 31 | 168 | 0.0 | 6.4 | 0.00 | 0.00 | 0.00 | 66 | 1009.7 |
| 20260504024738 | 31 | 251 | 0.0 | 6.4 | 0.00 | 0.00 | 0.00 | 67 | 1009.9 |
| 20260504024234 | 31 | 85 | 0.0 | 1.6 | 0.00 | 0.00 | 0.00 | 67 | 1009.9 |
| 20260504023731 | 30 | 146 | 0.0 | 3.2 | 0.00 | 0.00 | 0.00 | 68 | 1009.7 |
| 20260504023227 | 30 | 171 | 0.0 | 3.2 | 0.00 | 0.00 | 0.00 | 69 | 1009.7 |
| 20260504022724 | 30 | 145 | 1.6 | 3.2 | 0.00 | 0.00 | 0.00 | 71 | 1009.6 |
| 20260504022220 | 30 | 184 | 0.0 | 4.8 | 0.00 | 0.00 | 0.00 | 71 | 1009.4 |
| 20260504021717 | 30 | 196 | 0.0 | 1.6 | 0.00 | 0.00 | 0.00 | 73 | 1009.4 |
| 20260504021215 | 30 | 167 | 1.6 | 3.2 | 0.00 | 0.00 | 0.00 | 74 | 1009.5 |
| 20260504020711 | 30 | 185 | 1.6 | 3.2 | 0.00 | 0.00 | 0.00 | 74 | 1009.4 |
| 20260504020207 | 29 | 198 | 1.6 | 4.8 | 0.00 | 0.00 | 0.00 | 74 | 1009.2 |
| 20260504015704 | 29 | 189 | 1.6 | 1.6 | 0.00 | 0.00 | 0.00 | 75 | 1009.2 |
| 20260504015200 | 29 | 175 | 0.0 | 3.2 | 0.00 | 0.00 | 0.00 | 76 | 1009.2 |
| 20260504014656 | 28 | 181 | 1.6 | 3.2 | 0.00 | 0.00 | 0.00 | 78 | 1009.4 |
| 20260504014153 | 28 | 172 | 1.6 | 3.2 | 0.00 | 0.00 | 0.00 | 78 | 1009.1 |
| 20260504013651 | 28 | 173 | 1.6 | 6.4 | 0.00 | 0.00 | 0.00 | 78 | 1009.0 |
| 20260504013148 | 28 | 191 | 1.6 | 3.2 | 0.00 | 0.00 | 0.00 | 77 | 1008.7 |
| 20260504012645 | 28 | 117 | 1.6 | 3.2 | 0.00 | 0.00 | 0.00 | 79 | 1008.6 |
| 20260504012143 | 28 | 216 | 3.2 | 4.8 | 0.00 | 0.00 | 0.00 | 80 | 1008.5 |
| 20260504011639 | 28 | 146 | 1.6 | 3.2 | 0.00 | 0.00 | 0.00 | 80 | 1008.3 |
| 20260504011136 | 27 | 174 | 1.6 | 3.2 | 0.00 | 0.00 | 0.00 | 81 | 1007.9 |
| 20260504010632 | 27 | 186 | 3.2 | 4.8 | 0.00 | 0.00 | 0.00 | 81 | 1007.9 |
| 20260504010128 | 27 | 169 | 0.0 | 3.2 | 0.00 | 0.00 | 0.00 | 82 | 1007.9 |
| 20260504005625 | 27 | 148 | 1.6 | 4.8 | 0.00 | 0.00 | 0.00 | 83 | 1008.1 |
| 20260504005122 | 27 | 120 | 0.0 | 6.4 | 0.00 | 0.00 | 0.00 | 83 | 1008.0 |
| 20260504004620 | 26 | 173 | 0.0 | 6.4 | 0.00 | 0.00 | 0.00 | 84 | 1007.8 |
| 20260504004117 | 26 | 111 | 3.2 | 4.8 | 0.00 | 0.00 | 0.00 | 84 | 1007.8 |
| 20260504003613 | 26 | 146 | 0.0 | 4.8 | 0.00 | 0.00 | 0.00 | 85 | 1007.9 |
| 20260504003109 | 26 | 141 | 3.2 | 6.4 | 0.00 | 0.00 | 0.00 | 85 | 1007.5 |
| 20260504002606 | 26 | 191 | 3.2 | 4.8 | 0.00 | 0.00 | 0.00 | 85 | 1007.7 |
| 20260504002104 | 26 | 173 | 1.6 | 6.4 | 0.00 | 0.00 | 0.00 | 86 | 1007.5 |
| 20260504001602 | 26 | 124 | 1.6 | 4.8 | 0.00 | 0.00 | 0.00 | 86 | 1007.4 |
| 20260504001057 | 26 | 150 | 0.0 | 3.2 | 0.00 | 0.00 | 0.00 | 87 | 1007.5 |
| 20260504000555 | 26 | 162 | 3.2 | 3.2 | 0.00 | 0.00 | 0.00 | 87 | 1007.3 |
| 20260504000052 | 26 | 213 | 0.0 | 3.2 | 0.00 | 0.00 | 0.00 | 87 | 1007.3 |
| 20260503235550 | 26 | 182 | 3.2 | 9.7 | 0.00 | 0.00 | 0.00 | 87 | 1007.3 |
| 20260503235047 | 26 | 182 | 0.0 | 1.6 | 0.00 | 0.00 | 0.00 | 88 | 1007.3 |
| 20260503234544 | 26 | 159 | 1.6 | 4.8 | 0.00 | 0.00 | 0.00 | 88 | 1007.0 |
| 20260503234043 | 26 | 155 | 3.2 | 3.2 | 0.00 | 0.00 | 0.00 | 87 | 1007.2 |
| 20260503233539 | 26 | 168 | 3.2 | 3.2 | 0.00 | 0.00 | 0.00 | 87 | 1007.1 |
| 20260503233035 | 26 | 173 | 0.0 | 1.6 | 0.00 | 0.00 | 0.00 | 87 | 1007.2 |
| 20260503232532 | 26 | 170 | 0.0 | 1.6 | 0.00 | 0.00 | 0.00 | 87 | 1007.1 |
| 20260503232029 | 26 | 164 | 1.6 | 1.6 | 0.00 | 0.00 | 0.00 | 87 | 1006.9 |
| 20260503231527 | 26 | 173 | 3.2 | 4.8 | 0.00 | 0.00 | 0.00 | 86 | 1007.1 |
| 20260503231024 | 26 | 159 | 0.0 | 1.6 | 0.00 | 0.00 | 0.00 | 86 | 1007.2 |
| 20260503230520 | 26 | 156 | 0.0 | 1.6 | 0.00 | 0.00 | 0.00 | 86 | 1007.0 |
| 20260503230018 | 26 | 159 | 1.6 | 1.6 | 0.00 | 0.00 | 0.00 | 86 | 1007.2 |
| 20260503225515 | 26 | 155 | 0.0 | 1.6 | 0.00 | 0.00 | 0.00 | 86 | 1007.2 |
| 20260503225010 | 26 | 155 | 1.6 | 3.2 | 0.00 | 0.00 | 0.00 | 86 | 1007.2 |
| 20260503224507 | 26 | 169 | 1.6 | 4.8 | 0.00 | 0.00 | 0.00 | 86 | 1007.4 |
| 20260503224005 | 26 | 155 | 1.6 | 1.6 | 0.00 | 0.00 | 0.00 | 85 | 1007.3 |
| 20260503223503 | 26 | 162 | 0.0 | 1.6 | 0.00 | 0.00 | 0.00 | 85 | 1007.3 |